Time;durP1;ratioP1;P1;durP2;ratioP2;P2;SDS_P1;SDS_P2;PMS_P1;PMS_P2;Temp;Humidity;BMP_temperature;BMP_pressure;BME280_temperature;BME280_humidity;BME280_pressure;Samples;Min_cycle;Max_cycle;Signal;HPM_P1;HPM_P2
2023/10/09 00:03:00;;;;;;;13.75;5.32;;;15.20;99.90;;;;;;4895506;29;20200;-77
2023/10/09 00:08:22;;;;;;;11.05;5.22;;;15.20;99.90;;;;;;4910499;29;20240;-76
2023/10/09 00:10:54;;;;;;;17.58;5.75;;;15.20;99.90;;;;;;4895209;29;20231;-78
2023/10/09 00:13:27;;;;;;;15.73;4.97;;;15.20;99.90;;;;;;4896442;29;20185;-78
2023/10/09 00:15:59;;;;;;;12.30;5.38;;;15.20;99.90;;;;;;4896474;29;20192;-76
2023/10/09 00:18:29;;;;;;;10.38;5.32;;;15.10;99.90;;;;;;4896512;29;20235;-76
2023/10/09 00:21:11;;;;;;;13.55;6.25;;;15.20;99.90;;;;;;4894590;29;20196;-76
2023/10/09 00:23:38;;;;;;;12.00;5.30;;;15.20;99.90;;;;;;4895956;29;20657;-76
2023/10/09 00:26:22;;;;;;;11.18;5.63;;;15.20;99.90;;;;;;4896284;29;20223;-76
2023/10/09 00:28:52;;;;;;;15.95;6.20;;;15.20;99.90;;;;;;4889452;29;20658;-76
2023/10/09 00:31:33;;;;;;;16.98;6.53;;;15.20;99.90;;;;;;4894810;29;20203;-77
2023/10/09 00:34:07;;;;;;;18.35;6.65;;;15.20;99.90;;;;;;4894699;29;20276;-75
2023/10/09 00:36:49;;;;;;;13.95;6.50;;;15.20;99.90;;;;;;4895438;29;20256;-77
2023/10/09 00:39:23;;;;;;;12.63;6.20;;;15.20;99.90;;;;;;4895785;29;20245;-73
2023/10/09 00:41:49;;;;;;;14.65;6.53;;;15.20;99.90;;;;;;4896101;29;20189;-78
2023/10/09 00:44:15;;;;;;;16.23;7.13;;;15.20;99.90;;;;;;4894444;29;20256;-78
2023/10/09 00:46:43;;;;;;;15.80;6.95;;;15.20;99.90;;;;;;4898540;29;20284;-77
2023/10/09 00:49:10;;;;;;;17.17;7.30;;;15.20;99.90;;;;;;4900015;29;20204;-76
2023/10/09 00:51:44;;;;;;;12.75;6.57;;;15.20;99.90;;;;;;4899612;29;20252;-77
2023/10/09 00:54:19;;;;;;;18.85;7.38;;;15.30;99.90;;;;;;4899616;29;20193;-75
2023/10/09 00:56:52;;;;;;;17.88;6.78;;;15.30;99.90;;;;;;4899182;29;20199;-76
2023/10/09 00:59:23;;;;;;;15.48;7.65;;;15.30;99.90;;;;;;4890105;29;20654;-77
2023/10/09 01:04:47;;;;;;;19.58;8.35;;;15.30;99.90;;;;;;4897965;29;20243;-74
2023/10/09 01:07:16;;;;;;;23.25;8.70;;;15.30;99.90;;;;;;4913983;29;20213;-76
2023/10/09 01:09:44;;;;;;;19.00;8.77;;;15.30;99.90;;;;;;4913123;29;20267;-77
2023/10/09 01:12:18;;;;;;;18.77;9.00;;;15.30;99.90;;;;;;4899029;29;20288;-76
2023/10/09 01:14:46;;;;;;;24.90;9.52;;;15.30;99.90;;;;;;4898127;29;20191;-74
2023/10/09 01:17:18;;;;;;;16.35;8.98;;;15.30;99.90;;;;;;4898135;29;20323;-76
2023/10/09 01:19:44;;;;;;;22.92;9.60;;;15.30;99.90;;;;;;4883251;29;20215;-77
2023/10/09 01:22:13;;;;;;;21.75;9.43;;;15.30;99.90;;;;;;4912645;29;20193;-75
2023/10/09 01:24:40;;;;;;;22.92;10.45;;;15.30;99.90;;;;;;4898329;29;20203;-77
2023/10/09 01:27:14;;;;;;;21.95;10.35;;;15.30;99.90;;;;;;4899233;29;20220;-77
2023/10/09 01:29:41;;;;;;;24.70;11.10;;;15.30;99.90;;;;;;4898968;29;20696;-78
2023/10/09 01:32:16;;;;;;;31.63;11.70;;;15.30;99.90;;;;;;4897934;29;20220;-76
2023/10/09 01:34:44;;;;;;;34.45;11.73;;;15.30;99.90;;;;;;4891620;29;20783;-74
2023/10/09 01:37:29;;;;;;;26.23;11.73;;;15.30;99.90;;;;;;4900560;29;20230;-75
2023/10/09 01:40:22;;;;;;;27.63;12.10;;;15.30;99.90;;;;;;4900466;29;20193;-74
2023/10/09 01:42:45;;;;;;;27.25;13.05;;;15.30;99.90;;;;;;4900336;29;20295;-77
2023/10/09 01:47:51;;;;;;;34.92;14.55;;;15.30;99.90;;;;;;4899792;29;20226;-76
2023/10/09 01:50:35;;;;;;;38.33;15.57;;;15.30;99.90;;;;;;4881720;29;20200;-76
2023/10/09 01:53:02;;;;;;;35.83;15.38;;;15.30;99.90;;;;;;4898712;29;20188;-76
2023/10/09 01:55:35;;;;;;;33.55;15.50;;;15.30;99.90;;;;;;4898093;29;20216;-78
2023/10/09 02:00:49;;;;;;;41.33;16.50;;;15.20;99.90;;;;;;4914021;29;20658;-78
2023/10/09 02:03:15;;;;;;;39.05;15.93;;;15.20;99.90;;;;;;4913616;29;20193;-77
2023/10/09 02:05:45;;;;;;;37.75;16.45;;;15.30;99.90;;;;;;4914169;29;20310;-78
2023/10/09 02:08:11;;;;;;;38.47;17.38;;;15.20;99.90;;;;;;4898863;29;20300;-74
2023/10/09 02:10:47;;;;;;;38.53;16.85;;;15.20;99.90;;;;;;4899227;29;20249;-73
2023/10/09 02:13:29;;;;;;;38.60;16.25;;;15.20;99.90;;;;;;4897797;29;20725;-76
2023/10/09 02:16:16;;;;;;;35.88;16.92;;;15.20;99.90;;;;;;4912791;29;20184;-74
2023/10/09 02:18:56;;;;;;;41.03;16.80;;;15.20;99.90;;;;;;4898637;29;20232;-73
2023/10/09 02:21:29;;;;;;;39.55;17.58;;;15.20;99.90;;;;;;4896762;29;20271;-73
2023/10/09 02:23:56;;;;;;;47.65;18.27;;;15.20;99.90;;;;;;4898380;29;20590;-75
2023/10/09 02:26:26;;;;;;;38.83;18.27;;;15.20;99.90;;;;;;4897489;29;20269;-76
2023/10/09 02:28:58;;;;;;;36.00;18.83;;;15.20;99.90;;;;;;4898194;29;20189;-75
2023/10/09 02:31:35;;;;;;;39.25;19.33;;;15.20;99.90;;;;;;4898066;29;20180;-75
2023/10/09 02:34:08;;;;;;;41.15;19.77;;;15.20;99.90;;;;;;4912155;29;20964;-73
2023/10/09 02:36:38;;;;;;;37.72;19.15;;;15.20;99.90;;;;;;4912533;29;20252;-74
2023/10/09 02:39:06;;;;;;;43.83;20.80;;;15.20;99.90;;;;;;4896483;29;20189;-74
2023/10/09 02:41:34;;;;;;;42.28;19.90;;;15.20;99.90;;;;;;4896609;29;20204;-74
2023/10/09 02:44:10;;;;;;;43.97;20.88;;;15.20;99.90;;;;;;4897097;29;20197;-74
2023/10/09 02:46:36;;;;;;;46.13;21.27;;;15.20;99.90;;;;;;4896130;29;20220;-74
2023/10/09 02:49:09;;;;;;;44.25;21.17;;;15.10;99.90;;;;;;4896727;29;20248;-74
2023/10/09 02:51:41;;;;;;;44.38;20.83;;;15.10;99.90;;;;;;4897468;29;20200;-74
2023/10/09 02:57:06;;;;;;;45.10;22.08;;;15.10;99.90;;;;;;4896952;29;20267;-75
2023/10/09 02:59:33;;;;;;;42.75;21.77;;;15.10;99.90;;;;;;4912135;29;20244;-74
2023/10/09 03:02:02;;;;;;;49.47;22.95;;;15.10;99.90;;;;;;4897124;29;20661;-75
2023/10/09 03:04:30;;;;;;;46.60;24.00;;;15.10;99.90;;;;;;4896042;29;20197;-75
2023/10/09 03:07:00;;;;;;;43.92;23.85;;;15.10;99.90;;;;;;4897566;29;20697;-74
2023/10/09 03:09:27;;;;;;;48.40;23.92;;;15.00;99.90;;;;;;4895566;29;20661;-74
2023/10/09 03:12:00;;;;;;;55.75;26.88;;;15.00;99.90;;;;;;4896985;29;20177;-75
2023/10/09 03:14:28;;;;;;;55.80;26.67;;;15.10;99.90;;;;;;4896900;29;20267;-75
2023/10/09 03:16:56;;;;;;;64.13;27.10;;;15.00;99.90;;;;;;4897204;29;20243;-74
2023/10/09 03:19:26;;;;;;;55.75;27.67;;;15.10;99.90;;;;;;4911190;29;20244;-74
2023/10/09 03:21:52;;;;;;;59.55;27.83;;;15.10;99.90;;;;;;4896028;29;20189;-74
2023/10/09 03:24:20;;;;;;;58.10;28.17;;;15.10;99.90;;;;;;4896555;29;20257;-75
2023/10/09 03:26:45;;;;;;;60.22;28.15;;;15.10;99.90;;;;;;4911405;29;20219;-75
2023/10/09 03:29:12;;;;;;;63.72;28.88;;;15.10;99.90;;;;;;4895273;29;20200;-74
2023/10/09 03:31:38;;;;;;;60.28;28.80;;;15.10;99.90;;;;;;4896371;29;20188;-74
2023/10/09 03:34:05;;;;;;;66.22;29.70;;;15.20;99.90;;;;;;4896750;29;20192;-74
2023/10/09 03:36:37;;;;;;;54.47;29.73;;;15.20;99.90;;;;;;4896823;29;20196;-75
2023/10/09 03:39:17;;;;;;;65.78;30.08;;;15.20;99.90;;;;;;4895757;29;20200;-74
2023/10/09 03:41:46;;;;;;;60.75;30.10;;;15.30;99.90;;;;;;4896592;29;20192;-74
2023/10/09 03:44:16;;;;;;;62.40;32.28;;;15.30;99.90;;;;;;4911230;29;20223;-74
2023/10/09 03:46:44;;;;;;;62.08;31.48;;;15.30;99.90;;;;;;4896860;29;20295;-74
2023/10/09 03:49:12;;;;;;;64.88;32.97;;;15.30;99.90;;;;;;4896830;29;20225;-74
2023/10/09 03:51:39;;;;;;;60.10;30.13;;;15.40;99.90;;;;;;4894610;29;20208;-75
2023/10/09 03:54:09;;;;;;;65.25;32.30;;;15.40;99.90;;;;;;4894919;29;20538;-74
2023/10/09 03:56:35;;;;;;;65.05;31.20;;;15.40;99.90;;;;;;4896416;29;20218;-74
2023/10/09 03:59:03;;;;;;;68.30;31.42;;;15.50;99.90;;;;;;4896712;29;20190;-75
2023/10/09 04:01:29;;;;;;;64.78;31.45;;;15.50;99.90;;;;;;4910782;29;20811;-73
2023/10/09 04:03:59;;;;;;;68.65;32.60;;;15.50;99.90;;;;;;4894647;29;20220;-74
2023/10/09 04:06:33;;;;;;;68.35;32.03;;;15.50;99.90;;;;;;4896189;29;20219;-74
2023/10/09 04:09:00;;;;;;;66.15;32.33;;;15.60;99.90;;;;;;4896795;29;20665;-73
2023/10/09 04:11:26;;;;;;;73.25;32.67;;;15.70;99.90;;;;;;4896104;29;20271;-74
2023/10/09 04:13:53;;;;;;;64.57;31.75;;;15.70;99.90;;;;;;4896794;29;20721;-75
2023/10/09 04:18:59;;;;;;;58.75;30.88;;;15.70;99.90;;;;;;4895355;29;20330;-74
2023/10/09 04:21:35;;;;;;;57.72;29.70;;;15.80;99.90;;;;;;4898290;29;20196;-74
2023/10/09 04:24:22;;;;;;;61.00;30.10;;;15.80;99.90;;;;;;4900740;29;20211;-74
2023/10/09 04:26:55;;;;;;;57.15;28.88;;;15.90;99.90;;;;;;4899481;29;20294;-75
2023/10/09 04:29:37;;;;;;;54.58;27.38;;;15.90;99.90;;;;;;4899793;29;20261;-74
2023/10/09 04:32:07;;;;;;;53.47;26.80;;;16.00;99.90;;;;;;4898711;29;20199;-74
2023/10/09 04:34:41;;;;;;;49.72;25.83;;;16.10;99.90;;;;;;4899731;29;20204;-73
2023/10/09 04:39:46;;;;;;;46.08;25.05;;;16.10;99.90;;;;;;4899210;29;20181;-73
2023/10/09 04:47:37;;;;;;;51.47;27.05;;;16.30;99.90;;;;;;4899612;29;20225;-75
2023/10/09 04:50:11;;;;;;;50.50;25.92;;;16.30;99.90;;;;;;4898803;29;20256;-73
2023/10/09 05:02:58;;;;;;;55.13;25.08;;;16.50;99.90;;;;;;4896019;29;20204;-75
2023/10/09 05:16:18;;;;;;;46.22;22.48;;;16.50;99.90;;;;;;4894931;29;20193;-76
2023/10/09 05:19:28;;;;;;;45.33;22.88;;;16.50;99.90;;;;;;4887142;29;20323;-77
2023/10/09 05:21:58;;;;;;;40.60;22.10;;;16.60;99.90;;;;;;4897890;29;20191;-74
2023/10/09 05:24:26;;;;;;;42.78;21.95;;;16.50;99.90;;;;;;4899147;29;20239;-75
2023/10/09 05:26:52;;;;;;;48.08;24.70;;;16.50;99.90;;;;;;4898391;29;20240;-74
2023/10/09 05:29:47;;;;;;;41.95;22.77;;;16.50;99.90;;;;;;4897598;29;20756;-75
2023/10/09 05:37:32;;;;;;;40.63;21.20;;;16.50;99.90;;;;;;4898739;29;20227;-75
2023/10/09 06:03:48;;;;;;;32.40;14.57;;;16.60;99.90;;;;;;4889763;29;20576;-75
2023/10/09 06:06:32;;;;;;;37.42;14.43;;;16.60;99.90;;;;;;4885128;29;20185;-76
2023/10/09 06:11:41;;;;;;;27.05;14.55;;;16.60;99.90;;;;;;4889980;29;20283;-75
2023/10/09 06:24:33;;;;;;;28.77;12.68;;;16.70;99.90;;;;;;4893412;29;20291;-78
2023/10/09 06:29:36;;;;;;;25.40;13.48;;;16.80;99.90;;;;;;4893349;29;20208;-76
2023/10/09 06:34:46;;;;;;;27.73;12.55;;;16.80;99.90;;;;;;4895961;29;20205;-75
2023/10/09 06:42:43;;;;;;;26.25;12.93;;;16.80;99.90;;;;;;4894179;29;20486;-76
2023/10/09 06:47:55;;;;;;;28.52;13.57;;;16.80;99.90;;;;;;4896910;29;20212;-76
2023/10/09 06:50:25;;;;;;;27.42;12.48;;;16.80;99.90;;;;;;4885009;29;20547;-75
2023/10/09 06:52:58;;;;;;;30.70;12.73;;;16.80;99.90;;;;;;4896766;29;20672;-74
2023/10/09 06:55:36;;;;;;;27.30;11.75;;;16.80;99.90;;;;;;4896678;29;20188;-75
2023/10/09 06:58:09;;;;;;;27.35;12.80;;;16.80;99.90;;;;;;4896615;29;20206;-74
2023/10/09 07:03:32;;;;;;;26.85;12.60;;;16.80;99.90;;;;;;4895024;29;20189;-71
2023/10/09 07:06:24;;;;;;;32.67;12.73;;;16.70;99.90;;;;;;4895574;29;20257;-74
2023/10/09 07:14:32;;;;;;;28.05;12.48;;;16.80;99.90;;;;;;4896972;29;20199;-75
2023/10/09 07:17:04;;;;;;;34.42;13.02;;;16.80;99.90;;;;;;4893139;29;20188;-73
2023/10/09 07:19:57;;;;;;;31.20;12.00;;;16.80;99.90;;;;;;4891498;29;20239;-74
2023/10/09 07:22:29;;;;;;;34.85;12.55;;;16.80;99.90;;;;;;4894853;29;20215;-73
2023/10/09 07:24:58;;;;;;;31.70;12.40;;;16.80;99.90;;;;;;4895725;29;20197;-76
2023/10/09 07:27:44;;;;;;;34.05;12.32;;;16.80;99.90;;;;;;4899906;29;20215;-74
2023/10/09 07:38:23;;;;;;;36.03;12.85;;;16.90;99.90;;;;;;4891005;29;20189;-74
2023/10/09 07:49:08;;;;;;;26.23;11.57;;;17.00;99.90;;;;;;4896506;29;20226;-74
2023/10/09 07:51:36;;;;;;;25.80;11.70;;;17.00;99.90;;;;;;4893849;29;20184;-74
2023/10/09 07:54:08;;;;;;;26.52;11.63;;;17.00;99.90;;;;;;4910638;29;20217;-75
2023/10/09 07:56:45;;;;;;;31.63;12.45;;;17.00;99.90;;;;;;4896173;29;20187;-75
2023/10/09 07:59:12;;;;;;;28.70;11.05;;;17.00;99.90;;;;;;4895966;29;20236;-75
2023/10/09 08:02:02;;;;;;;28.77;12.18;;;17.00;99.90;;;;;;4896192;29;20196;-75
2023/10/09 08:04:39;;;;;;;28.02;11.85;;;17.00;99.90;;;;;;4891564;29;20196;-75
2023/10/09 08:07:19;;;;;;;31.38;11.93;;;17.00;99.90;;;;;;4894804;29;20251;-73
2023/10/09 08:09:48;;;;;;;34.17;11.40;;;17.00;99.90;;;;;;4891342;29;20630;-72
2023/10/09 08:18:27;;;;;;;32.35;11.70;;;17.00;99.90;;;;;;4895794;29;20629;-76
2023/10/09 08:23:33;;;;;;;28.77;11.68;;;17.00;99.90;;;;;;4902696;29;20215;-72
2023/10/09 08:26:14;;;;;;;28.48;12.07;;;17.00;99.90;;;;;;4884595;29;20188;-71
2023/10/09 08:28:42;;;;;;;33.60;11.75;;;16.90;99.90;;;;;;4895968;29;20351;-73
2023/10/09 08:31:45;;;;;;;35.92;11.88;;;16.90;99.90;;;;;;4895987;29;20197;-73
2023/10/09 08:34:25;;;;;;;34.80;11.73;;;16.90;99.90;;;;;;4885426;29;21050;-72
2023/10/09 08:36:55;;;;;;;36.42;12.13;;;16.80;99.90;;;;;;4895394;29;20196;-71
2023/10/09 08:39:30;;;;;;;29.00;11.43;;;16.80;99.90;;;;;;4890669;29;20683;-74
2023/10/09 08:41:59;;;;;;;32.33;10.82;;;16.80;99.90;;;;;;4896143;29;20180;-72
2023/10/09 08:44:27;;;;;;;29.38;11.65;;;16.80;99.90;;;;;;4895979;29;20197;-72
2023/10/09 08:46:57;;;;;;;33.83;12.60;;;16.80;99.90;;;;;;4879077;29;20231;-73
2023/10/09 08:49:25;;;;;;;28.00;11.38;;;16.90;99.90;;;;;;4892857;29;20192;-72
2023/10/09 08:51:52;;;;;;;33.88;12.02;;;16.90;99.90;;;;;;4892963;29;20192;-73
2023/10/09 08:54:19;;;;;;;32.03;11.50;;;16.90;99.90;;;;;;4896064;29;20244;-75
2023/10/09 08:56:50;;;;;;;32.95;12.18;;;17.00;99.90;;;;;;4867311;29;20560;-72
2023/10/09 08:59:20;;;;;;;35.08;11.82;;;17.00;99.90;;;;;;4895802;29;20600;-72
2023/10/09 09:01:51;;;;;;;27.80;11.35;;;17.10;99.90;;;;;;4895631;29;20754;-72
2023/10/09 09:04:45;;;;;;;30.33;11.10;;;17.10;99.90;;;;;;4890525;29;20228;-71
2023/10/09 09:07:39;;;;;;;25.63;10.27;;;17.20;99.90;;;;;;4897724;29;20224;-71
2023/10/09 09:10:17;;;;;;;25.13;10.65;;;17.30;99.90;;;;;;4890323;29;20200;-71
2023/10/09 09:12:44;;;;;;;25.77;9.77;;;17.30;99.90;;;;;;4899847;29;20185;-71
2023/10/09 09:15:21;;;;;;;31.08;11.68;;;17.40;99.90;;;;;;4892079;29;20237;-70
2023/10/09 09:17:50;;;;;;;24.42;10.63;;;17.40;99.90;;;;;;4893060;29;20195;-73
2023/10/09 09:20:33;;;;;;;23.40;9.68;;;17.40;99.90;;;;;;4897282;29;20291;-72
2023/10/09 09:22:59;;;;;;;22.75;10.27;;;17.40;99.90;;;;;;4899131;29;20693;-71
2023/10/09 09:25:44;;;;;;;19.42;9.18;;;17.40;99.90;;;;;;4897095;29;20193;-70
2023/10/09 09:28:18;;;;;;;24.92;9.95;;;17.40;99.90;;;;;;4899178;29;20228;-70
2023/10/09 09:30:50;;;;;;;19.75;9.43;;;17.40;99.90;;;;;;4892845;29;20633;-69
2023/10/09 09:33:26;;;;;;;26.75;9.85;;;17.50;99.90;;;;;;4898981;29;20219;-72
2023/10/09 09:36:06;;;;;;;27.58;9.65;;;17.50;99.90;;;;;;4891859;29;20548;-72
2023/10/09 09:38:49;;;;;;;21.55;9.57;;;17.50;99.90;;;;;;4897187;29;20203;-71
2023/10/09 09:41:25;;;;;;;22.00;10.35;;;17.50;99.90;;;;;;4892496;29;20189;-71
2023/10/09 09:43:56;;;;;;;21.70;9.48;;;17.50;99.90;;;;;;4898753;29;20203;-71
2023/10/09 09:46:33;;;;;;;23.25;9.50;;;17.60;99.90;;;;;;4898651;29;20191;-72
2023/10/09 09:49:05;;;;;;;22.85;9.13;;;17.60;99.90;;;;;;4898387;29;20189;-69
2023/10/09 09:51:32;;;;;;;24.83;9.05;;;17.60;99.90;;;;;;4892490;29;20193;-72
2023/10/09 09:53:58;;;;;;;24.67;9.38;;;17.70;99.90;;;;;;4898749;29;20203;-72
2023/10/09 09:56:28;;;;;;;25.10;9.88;;;17.70;99.90;;;;;;4894654;29;20556;-70
2023/10/09 09:59:01;;;;;;;23.80;8.32;;;17.70;99.90;;;;;;4889205;29;20189;-69
2023/10/09 10:01:34;;;;;;;18.50;8.10;;;17.80;99.90;;;;;;4912504;29;20177;-72
2023/10/09 10:04:12;;;;;;;21.77;8.02;;;17.80;99.90;;;;;;4898105;29;20240;-71
2023/10/09 10:06:41;;;;;;;21.85;7.80;;;17.70;99.90;;;;;;4887157;29;20326;-73
2023/10/09 10:09:07;;;;;;;21.08;7.85;;;17.70;99.90;;;;;;4894105;29;20236;-73
2023/10/09 10:11:51;;;;;;;15.70;7.38;;;17.70;99.90;;;;;;4895142;29;20197;-73
2023/10/09 10:14:31;;;;;;;19.55;7.68;;;17.80;99.90;;;;;;4895113;29;20185;-71
2023/10/09 10:17:20;;;;;;;23.65;7.80;;;17.70;99.90;;;;;;4897537;29;20208;-71
2023/10/09 10:22:47;;;;;;;19.42;7.22;;;17.70;99.90;;;;;;4890981;29;20188;-72
2023/10/09 10:25:32;;;;;;;19.83;7.10;;;17.70;99.90;;;;;;4896967;29;20216;-73
2023/10/09 10:28:28;;;;;;;19.10;6.72;;;17.70;99.90;;;;;;4880873;29;20236;-72
2023/10/09 10:30:55;;;;;;;19.63;6.70;;;17.70;99.90;;;;;;4888881;29;20220;-72
2023/10/09 10:33:24;;;;;;;26.30;7.60;;;17.70;99.90;;;;;;4897328;29;20192;-72
2023/10/09 10:35:53;;;;;;;22.70;7.35;;;17.70;99.90;;;;;;4891521;29;20223;-72
2023/10/09 10:38:44;;;;;;;20.13;7.10;;;17.80;99.90;;;;;;4895757;29;20196;-71
2023/10/09 10:41:16;;;;;;;21.65;7.10;;;17.80;99.90;;;;;;4911771;29;20208;-72
2023/10/09 10:46:37;;;;;;;18.23;7.22;;;17.80;99.90;;;;;;4897101;29;20261;-71
2023/10/09 10:49:21;;;;;;;20.35;7.05;;;17.80;99.90;;;;;;4897329;29;20696;-72
2023/10/09 10:51:49;;;;;;;19.50;7.00;;;17.80;99.90;;;;;;4896528;29;20179;-72
2023/10/09 10:54:45;;;;;;;31.27;8.02;;;17.80;99.90;;;;;;4896392;29;20216;-70
2023/10/09 10:57:29;;;;;;;23.63;7.40;;;17.80;99.90;;;;;;4887115;29;20607;-71
2023/10/09 11:00:12;;;;;;;19.55;7.57;;;17.80;99.90;;;;;;4906246;29;20189;-70
2023/10/09 11:02:43;;;;;;;18.35;7.03;;;17.80;99.90;;;;;;4896175;29;20196;-70
2023/10/09 11:05:23;;;;;;;18.60;6.95;;;17.80;99.90;;;;;;4895809;29;20184;-71
2023/10/09 11:07:52;;;;;;;15.40;6.50;;;17.70;99.90;;;;;;4896005;29;20224;-71
2023/10/09 11:10:31;;;;;;;21.08;8.30;;;17.70;99.90;;;;;;4897115;29;20673;-71
2023/10/09 11:15:57;;;;;;;21.35;7.18;;;17.50;99.90;;;;;;4885300;29;20212;-70
2023/10/09 11:18:27;;;;;;;22.33;7.88;;;17.50;99.90;;;;;;4911170;29;20232;-70
2023/10/09 11:21:22;;;;;;;22.52;7.63;;;17.40;99.90;;;;;;4895685;29;20188;-73
2023/10/09 11:26:27;;;;;;;22.13;6.40;;;17.40;99.90;;;;;;4897165;29;20244;-70
2023/10/09 11:29:16;;;;;;;18.58;6.15;;;17.40;99.90;;;;;;4896684;29;20188;-71
2023/10/09 11:32:05;;;;;;;20.95;6.45;;;17.40;99.90;;;;;;4887596;29;20319;-70
2023/10/09 11:34:36;;;;;;;22.55;6.25;;;17.50;99.90;;;;;;4893221;29;20653;-70
2023/10/09 11:37:12;;;;;;;24.10;5.72;;;17.60;99.90;;;;;;4894570;29;20189;-71
2023/10/09 11:39:50;;;;;;;17.30;6.50;;;17.70;99.90;;;;;;4895330;29;20188;-72
2023/10/09 11:45:31;;;;;;;15.23;6.40;;;17.80;99.90;;;;;;4896063;29;20192;-71
2023/10/09 11:51:18;;;;;;;14.85;5.40;;;17.90;99.90;;;;;;4895711;29;20236;-68
2023/10/09 11:53:43;;;;;;;16.65;5.68;;;18.00;99.90;;;;;;4876238;29;20476;-68
2023/10/09 11:56:16;;;;;;;14.95;5.00;;;18.00;99.90;;;;;;4888344;29;20188;-69
2023/10/09 11:58:43;;;;;;;15.82;5.05;;;18.00;99.90;;;;;;4894873;29;20192;-71
2023/10/09 12:01:23;;;;;;;13.68;4.60;;;18.00;99.90;;;;;;4892275;29;20189;-71
2023/10/09 12:03:50;;;;;;;13.15;4.15;;;18.00;99.90;;;;;;4884054;29;20192;-71
2023/10/09 12:06:22;;;;;;;19.92;4.57;;;18.00;99.90;;;;;;4896311;29;20188;-69
2023/10/09 12:08:49;;;;;;;18.98;5.00;;;17.90;99.90;;;;;;4896730;29;20204;-73
2023/10/09 12:11:28;;;;;;;14.85;4.50;;;17.90;99.90;;;;;;4894764;29;20192;-71
2023/10/09 12:14:00;;;;;;;11.05;4.40;;;17.90;99.90;;;;;;4895668;29;20224;-70
2023/10/09 12:16:32;;;;;;;18.42;5.18;;;17.80;99.90;;;;;;4880513;29;20204;-72
2023/10/09 12:18:59;;;;;;;23.70;5.38;;;17.80;99.90;;;;;;4896647;29;20352;-71
2023/10/09 12:21:27;;;;;;;20.30;5.63;;;17.80;99.90;;;;;;4895472;29;20264;-72
2023/10/09 12:23:57;;;;;;;18.05;4.80;;;17.80;99.90;;;;;;4896220;29;20242;-70
2023/10/09 12:26:24;;;;;;;23.13;5.13;;;17.80;99.90;;;;;;4884179;29;20216;-70
2023/10/09 12:28:50;;;;;;;20.40;5.05;;;17.80;99.90;;;;;;4896659;29;20226;-69
2023/10/09 12:31:19;;;;;;;16.67;5.20;;;17.80;99.90;;;;;;4894952;29;20200;-72
2023/10/09 12:33:50;;;;;;;19.75;5.25;;;17.80;99.90;;;;;;4892855;29;20216;-72
2023/10/09 12:36:21;;;;;;;26.63;5.28;;;17.90;99.90;;;;;;4896330;29;20189;-71
2023/10/09 12:38:52;;;;;;;18.30;5.30;;;17.90;99.90;;;;;;4911058;29;20204;-70
2023/10/09 12:41:41;;;;;;;16.88;4.95;;;17.90;99.90;;;;;;4895916;29;20197;-73
2023/10/09 12:44:14;;;;;;;14.73;4.88;;;18.00;99.90;;;;;;4897900;29;20205;-71
2023/10/09 12:46:51;;;;;;;16.98;4.78;;;18.00;99.90;;;;;;4899487;29;20272;-71
2023/10/09 12:49:27;;;;;;;12.20;4.38;;;18.10;99.90;;;;;;4899412;29;20184;-72
2023/10/09 12:51:54;;;;;;;12.95;4.70;;;18.10;99.90;;;;;;4898780;29;20207;-72
2023/10/09 12:54:20;;;;;;;16.30;5.15;;;18.10;99.90;;;;;;4899994;29;20189;-73
2023/10/09 12:56:48;;;;;;;17.48;4.80;;;18.20;99.90;;;;;;4899921;29;20244;-72
2023/10/09 12:59:14;;;;;;;12.13;4.75;;;18.20;99.90;;;;;;4903929;29;20220;-73
2023/10/09 13:01:44;;;;;;;19.40;4.75;;;18.20;99.90;;;;;;4896963;29;20243;-71
2023/10/09 13:04:11;;;;;;;16.65;4.75;;;18.20;99.90;;;;;;4896556;29;20200;-71
2023/10/09 13:06:43;;;;;;;13.88;4.10;;;18.30;99.90;;;;;;4899324;29;20216;-71
2023/10/09 13:09:14;;;;;;;12.43;4.40;;;18.30;99.90;;;;;;4898838;29;20213;-70
2023/10/09 13:11:40;;;;;;;11.15;4.03;;;18.30;99.90;;;;;;4897805;29;20193;-70
2023/10/09 13:14:41;;;;;;;14.77;4.43;;;18.30;99.90;;;;;;4898203;29;20221;-70
2023/10/09 13:16:58;;;;;;;12.88;4.28;;;18.30;99.90;;;;;;4883280;29;20691;-70
2023/10/09 13:19:25;;;;;;;12.07;4.07;;;18.30;99.90;;;;;;4895080;29;20236;-71
2023/10/09 13:21:51;;;;;;;14.13;4.65;;;18.30;99.90;;;;;;4899577;29;20215;-72
2023/10/09 13:24:17;;;;;;;15.95;4.47;;;18.30;99.90;;;;;;4899259;29;20190;-71
2023/10/09 13:26:51;;;;;;;15.57;4.75;;;18.20;99.90;;;;;;4898044;29;20968;-71
2023/10/09 13:29:22;;;;;;;12.93;3.97;;;18.30;99.90;;;;;;4899059;29;20184;-70
2023/10/09 13:31:51;;;;;;;11.75;4.22;;;18.30;99.90;;;;;;4892081;29;20192;-72
2023/10/09 13:34:17;;;;;;;17.33;4.18;;;18.30;99.90;;;;;;4897303;29;20263;-72
2023/10/09 13:36:58;;;;;;;16.63;4.50;;;18.30;99.90;;;;;;4897372;29;20340;-72
2023/10/09 13:39:25;;;;;;;18.58;4.43;;;18.30;99.90;;;;;;4907149;29;20271;-72
2023/10/09 13:41:58;;;;;;;12.00;3.88;;;18.30;99.90;;;;;;4890792;29;20272;-73
2023/10/09 13:44:26;;;;;;;13.27;4.45;;;18.30;99.90;;;;;;4896622;29;20196;-74
2023/10/09 13:46:56;;;;;;;13.27;4.20;;;18.20;99.90;;;;;;4898301;29;20208;-73
2023/10/09 13:49:29;;;;;;;21.00;4.47;;;18.20;99.90;;;;;;4896092;29;20634;-73
2023/10/09 13:51:56;;;;;;;17.98;4.32;;;18.30;99.90;;;;;;4896696;29;20184;-73
2023/10/09 13:54:39;;;;;;;12.90;4.22;;;18.30;99.90;;;;;;4898560;29;20263;-71
2023/10/09 13:57:07;;;;;;;16.98;4.30;;;18.20;99.90;;;;;;4897201;29;20712;-72
2023/10/09 13:59:43;;;;;;;14.15;4.55;;;18.20;99.90;;;;;;4897473;29;20649;-72
2023/10/09 14:02:16;;;;;;;12.18;3.70;;;18.20;99.90;;;;;;4894126;29;20599;-71
2023/10/09 14:04:43;;;;;;;12.15;4.10;;;18.20;99.90;;;;;;4896462;29;20638;-73
2023/10/09 14:07:09;;;;;;;13.73;4.07;;;18.20;99.90;;;;;;4897952;29;20255;-71
2023/10/09 14:09:39;;;;;;;12.52;3.67;;;18.10;99.90;;;;;;4911910;29;20280;-74
2023/10/09 14:12:07;;;;;;;12.38;3.58;;;18.10;99.90;;;;;;4897264;29;20193;-73
2023/10/09 14:14:46;;;;;;;12.57;3.13;;;18.10;99.90;;;;;;4912234;29;20270;-74
2023/10/09 14:17:19;;;;;;;12.65;3.38;;;18.00;99.90;;;;;;4897317;29;20180;-71
2023/10/09 14:19:48;;;;;;;12.43;3.28;;;18.00;99.90;;;;;;4897174;29;20248;-71
2023/10/09 14:22:17;;;;;;;12.75;3.10;;;18.00;99.90;;;;;;4897085;29;20196;-73
2023/10/09 14:24:55;;;;;;;11.55;3.30;;;18.00;99.90;;;;;;4896448;29;20591;-71
2023/10/09 14:27:26;;;;;;;12.68;3.30;;;18.00;99.90;;;;;;4896817;29;20228;-73
2023/10/09 14:29:59;;;;;;;15.13;3.40;;;18.10;99.90;;;;;;4897729;29;20203;-72
2023/10/09 14:32:28;;;;;;;11.38;2.95;;;18.10;99.90;;;;;;4894293;29;20193;-72
2023/10/09 14:35:00;;;;;;;12.02;3.20;;;18.10;99.90;;;;;;4899916;29;20188;-73
2023/10/09 14:37:27;;;;;;;10.57;2.92;;;18.10;99.90;;;;;;4896852;29;20193;-70
2023/10/09 14:39:55;;;;;;;16.80;3.50;;;18.10;99.90;;;;;;4897074;29;20192;-73
2023/10/09 14:42:24;;;;;;;11.63;3.20;;;18.10;99.90;;;;;;4895491;29;20200;-72
2023/10/09 14:44:50;;;;;;;13.63;3.58;;;18.10;99.90;;;;;;4896655;29;20196;-72
2023/10/09 14:47:18;;;;;;;13.43;3.45;;;18.10;99.90;;;;;;4897483;29;20214;-70
2023/10/09 14:49:47;;;;;;;13.85;3.30;;;18.10;99.90;;;;;;4911633;29;20216;-72
2023/10/09 14:52:18;;;;;;;11.27;3.03;;;18.10;99.90;;;;;;4896967;29;20231;-71
2023/10/09 14:54:44;;;;;;;11.02;3.03;;;18.10;99.90;;;;;;4910917;29;20224;-72
2023/10/09 14:57:14;;;;;;;11.90;2.60;;;18.10;99.90;;;;;;4896736;29;20284;-72
2023/10/09 14:59:40;;;;;;;11.65;2.85;;;18.10;99.90;;;;;;4896462;29;20196;-72
2023/10/09 15:02:07;;;;;;;12.40;3.17;;;18.10;99.90;;;;;;4896657;29;20192;-73
2023/10/09 15:04:37;;;;;;;11.48;2.35;;;18.10;99.90;;;;;;4893439;29;20229;-72
2023/10/09 15:07:07;;;;;;;13.45;3.15;;;18.10;99.90;;;;;;4896223;29;20661;-73
2023/10/09 15:09:36;;;;;;;11.05;2.55;;;18.00;99.90;;;;;;4895779;29;20193;-75
2023/10/09 15:12:06;;;;;;;13.15;2.47;;;18.00;99.90;;;;;;4897004;29;20674;-74
2023/10/09 15:14:32;;;;;;;10.40;2.83;;;18.00;99.90;;;;;;4896138;29;20206;-74
2023/10/09 15:16:58;;;;;;;12.00;2.75;;;18.00;99.90;;;;;;4896190;29;20216;-75
2023/10/09 15:19:29;;;;;;;9.45;2.75;;;18.00;99.90;;;;;;4896823;29;20319;-74
2023/10/09 15:21:58;;;;;;;12.35;2.85;;;18.00;99.90;;;;;;4894695;29;20231;-72
2023/10/09 15:24:25;;;;;;;15.43;2.92;;;18.00;99.90;;;;;;4896576;29;20188;-75
2023/10/09 15:26:57;;;;;;;13.93;2.70;;;18.00;99.90;;;;;;4879774;29;20256;-74
2023/10/09 15:29:33;;;;;;;14.32;3.17;;;18.00;99.90;;;;;;4896546;29;20200;-74
2023/10/09 15:32:14;;;;;;;7.43;2.40;;;18.00;99.90;;;;;;4910108;29;20191;-73
2023/10/09 15:34:41;;;;;;;9.57;2.67;;;18.00;99.90;;;;;;4891394;29;20306;-75